Lougheed, Canada
Current Conditions -  °F | °C
As of 1:00 AM on Sunday 26 Oct 2014 (Local Time) from CYLL Reporting Station
Overcast Overcast  
Wind Chill: 31°   Ceiling: 12000
Heat Index: 39°   Visibility: 9mi
Dew Point: 25°   Wind: 14mph
Humidity: 56%   Direction: 100°E
Pressure: 29.55"   Gusts: 20mph
Location:  52.73°N, 111.55°W
Report Text: CYLL 260700Z AUTO 10012G17KT 9SM BKN120 OVC140 04/M04 A2955 RMK SLP029
Loading
Personal Weather Stations






























Interactive Weather Map
Tropical Storm Tracking
New forecast layout! Learn more

10-Day Weather Forecast

Advertisements
Track Severe Weather on mobile